Time;durP1;ratioP1;P1;durP2;ratioP2;P2;SDS_P1;SDS_P2;PMS_P1;PMS_P2;Temp;Humidity;BMP_temperature;BMP_pressure;BME280_temperature;BME280_humidity;BME280_pressure;Samples;Min_cycle;Max_cycle;Signal;HPM_P1;HPM_P2
2022/12/05 00:00:37;;;;;;;29.37;16.07;;;3.50;99.90;;;;;;4994085;28;20865;-82
2022/12/05 00:03:06;;;;;;;23.93;14.60;;;3.50;99.90;;;;;;4977491;28;20494;-83
2022/12/05 00:05:32;;;;;;;26.70;15.67;;;3.50;99.90;;;;;;4977157;28;20451;-82
2022/12/05 00:07:59;;;;;;;27.73;15.30;;;3.60;99.90;;;;;;4992001;28;20451;-81
2022/12/05 00:10:27;;;;;;;23.87;16.00;;;3.50;99.90;;;;;;4976705;28;20478;-82
2022/12/05 00:12:54;;;;;;;28.53;16.03;;;3.60;99.90;;;;;;4996489;28;20554;-83
2022/12/05 00:15:21;;;;;;;25.97;16.87;;;3.60;99.90;;;;;;4995740;28;20846;-82
2022/12/05 00:17:48;;;;;;;24.37;14.87;;;3.60;99.90;;;;;;4997008;28;20492;-80
2022/12/05 00:20:16;;;;;;;21.90;14.93;;;3.50;99.90;;;;;;4981847;28;20473;-82
2022/12/05 00:22:43;;;;;;;24.90;15.50;;;3.40;99.90;;;;;;4999713;28;20480;-82
2022/12/05 00:25:10;;;;;;;25.10;16.57;;;3.50;99.90;;;;;;5000549;28;20543;-83
2022/12/05 00:27:37;;;;;;;30.17;17.17;;;3.50;99.90;;;;;;4999678;28;20446;-83
2022/12/05 00:30:05;;;;;;;30.07;15.30;;;3.50;99.90;;;;;;4980156;28;20468;-83
2022/12/05 00:32:33;;;;;;;26.63;15.27;;;3.50;99.90;;;;;;4980391;28;20447;-84
2022/12/05 00:34:59;;;;;;;25.03;14.77;;;3.60;99.90;;;;;;4980217;28;20540;-80
2022/12/05 00:37:27;;;;;;;25.43;15.33;;;3.60;99.90;;;;;;4980076;28;20458;-83
2022/12/05 00:39:54;;;;;;;21.77;13.43;;;3.70;99.90;;;;;;4997816;28;20492;-83
2022/12/05 00:42:21;;;;;;;23.17;15.77;;;3.70;99.90;;;;;;4994238;28;20451;-83
2022/12/05 00:44:49;;;;;;;28.17;14.33;;;3.70;99.90;;;;;;4980282;28;20452;-83
2022/12/05 00:47:16;;;;;;;22.97;13.73;;;3.70;99.90;;;;;;4983263;28;20542;-83
2022/12/05 00:49:43;;;;;;;24.37;15.10;;;3.80;99.90;;;;;;4981610;28;20475;-83
2022/12/05 00:52:10;;;;;;;21.50;14.73;;;3.80;99.90;;;;;;4981752;28;20990;-82
2022/12/05 00:54:38;;;;;;;25.47;15.30;;;3.90;99.90;;;;;;4999370;28;20541;-83
2022/12/05 00:57:05;;;;;;;23.30;13.30;;;3.90;99.90;;;;;;4998151;28;20450;-83
2022/12/05 00:59:32;;;;;;;26.83;14.93;;;4.00;99.90;;;;;;4979473;28;21026;-82
2022/12/05 01:01:59;;;;;;;24.27;14.97;;;4.00;99.90;;;;;;4979378;28;20455;-81
2022/12/05 01:04:26;;;;;;;24.20;14.93;;;4.00;99.90;;;;;;4979936;28;20991;-83
2022/12/05 01:06:57;;;;;;;29.30;15.23;;;4.00;99.90;;;;;;4979448;28;20460;-85
2022/12/05 01:09:25;;;;;;;17.97;13.10;;;4.00;99.90;;;;;;4987686;28;20474;-83
2022/12/05 01:11:53;;;;;;;25.47;14.47;;;4.10;99.90;;;;;;4982829;28;20454;-82
2022/12/05 01:14:23;;;;;;;24.60;13.97;;;3.90;99.90;;;;;;4992042;28;20461;-83
2022/12/05 01:16:51;;;;;;;20.20;13.23;;;3.90;99.90;;;;;;4979905;28;20466;-83
2022/12/05 01:19:21;;;;;;;25.90;16.40;;;3.80;99.90;;;;;;4992767;28;20518;-83
2022/12/05 01:21:48;;;;;;;24.90;15.37;;;3.90;99.90;;;;;;4999153;28;20447;-81
2022/12/05 01:24:16;;;;;;;21.20;14.30;;;3.90;99.90;;;;;;4983766;28;20462;-83
2022/12/05 01:26:43;;;;;;;27.20;16.23;;;4.00;99.90;;;;;;4978038;28;20451;-83
2022/12/05 01:29:13;;;;;;;22.77;14.50;;;4.00;99.90;;;;;;4990504;28;21097;-83
2022/12/05 01:31:40;;;;;;;23.97;14.47;;;4.00;99.90;;;;;;4998853;28;20561;-82
2022/12/05 01:34:10;;;;;;;27.27;17.20;;;4.00;99.90;;;;;;4999085;28;20533;-82
2022/12/05 01:36:38;;;;;;;29.80;17.10;;;3.80;99.90;;;;;;4998286;28;20462;-82
2022/12/05 01:39:05;;;;;;;26.57;17.10;;;3.80;99.90;;;;;;4979101;28;20510;-83
2022/12/05 01:41:36;;;;;;;25.87;15.23;;;3.80;99.90;;;;;;4979166;28;20543;-82
2022/12/05 01:44:05;;;;;;;30.07;18.73;;;3.90;99.90;;;;;;4960147;29;20449;-84
2022/12/05 01:46:35;;;;;;;29.80;16.67;;;3.80;99.90;;;;;;4960205;29;20449;-83
2022/12/05 01:49:07;;;;;;;28.57;16.77;;;3.90;99.90;;;;;;4996612;28;20479;-83
2022/12/05 01:51:37;;;;;;;23.43;15.80;;;3.80;99.90;;;;;;4999630;28;20514;-83
2022/12/05 01:54:05;;;;;;;29.53;16.60;;;3.70;99.90;;;;;;4980055;28;20449;-83
2022/12/05 01:56:33;;;;;;;25.53;16.87;;;3.70;99.90;;;;;;4980120;28;20454;-84
2022/12/05 01:59:02;;;;;;;28.10;15.40;;;3.70;99.90;;;;;;4979164;28;20498;-82
2022/12/05 02:01:29;;;;;;;26.20;16.40;;;3.70;99.90;;;;;;4982842;28;20450;-84
2022/12/05 02:03:59;;;;;;;25.33;15.60;;;3.70;99.90;;;;;;4998318;28;20983;-82
2022/12/05 02:06:27;;;;;;;24.30;15.73;;;3.70;99.90;;;;;;4996381;28;20462;-84
2022/12/05 02:08:54;;;;;;;26.63;15.60;;;3.70;99.90;;;;;;4987754;28;20466;-83
2022/12/05 02:11:22;;;;;;;26.07;17.13;;;3.70;99.90;;;;;;4999626;28;20774;-83
2022/12/05 02:14:09;;;;;;;23.27;14.47;;;3.60;99.90;;;;;;4980212;28;20470;-82
2022/12/05 02:16:48;;;;;;;26.33;16.00;;;3.70;99.90;;;;;;4980450;28;20538;-81
2022/12/05 02:19:52;;;;;;;26.17;15.47;;;3.70;99.90;;;;;;4989794;28;20491;-83
2022/12/05 02:22:37;;;;;;;24.63;15.20;;;3.70;99.90;;;;;;4997672;28;20573;-84
2022/12/05 02:25:22;;;;;;;25.67;15.53;;;3.80;99.90;;;;;;4991493;28;20899;-83
2022/12/05 02:28:14;;;;;;;27.07;16.40;;;3.80;99.90;;;;;;4978531;28;20944;-83
2022/12/05 02:30:50;;;;;;;23.93;13.80;;;3.80;99.90;;;;;;4978931;28;20455;-83
2022/12/05 02:33:22;;;;;;;30.60;15.90;;;3.90;99.90;;;;;;4998304;28;20469;-83
2022/12/05 02:35:55;;;;;;;22.53;14.63;;;3.90;99.90;;;;;;4998619;28;20526;-83
2022/12/05 02:38:28;;;;;;;23.23;15.00;;;3.90;99.90;;;;;;4994750;28;20451;-83
2022/12/05 02:41:04;;;;;;;26.93;16.47;;;4.00;99.90;;;;;;4991786;28;20454;-84
2022/12/05 02:43:37;;;;;;;25.63;15.33;;;3.80;99.90;;;;;;4999602;28;20932;-83
2022/12/05 02:46:10;;;;;;;22.50;13.40;;;3.90;99.90;;;;;;5000597;28;20455;-83
2022/12/05 02:48:40;;;;;;;24.90;15.20;;;3.90;99.90;;;;;;5002312;28;20537;-80
2022/12/05 02:51:09;;;;;;;25.97;15.40;;;3.80;99.90;;;;;;4994265;28;20546;-83
2022/12/05 02:53:37;;;;;;;26.00;15.73;;;3.80;99.90;;;;;;4994431;28;20511;-80
2022/12/05 02:56:06;;;;;;;26.40;16.00;;;3.80;99.90;;;;;;4986000;28;20536;-82
2022/12/05 02:58:39;;;;;;;32.33;17.67;;;3.80;99.90;;;;;;4978352;28;20487;-83
2022/12/05 03:01:07;;;;;;;27.30;15.53;;;3.80;99.90;;;;;;4979333;28;20458;-81
2022/12/05 03:03:35;;;;;;;26.90;14.70;;;3.80;99.90;;;;;;4978366;28;21028;-83
2022/12/05 03:06:07;;;;;;;29.80;15.80;;;3.80;99.90;;;;;;4977989;28;20518;-84
2022/12/05 03:08:40;;;;;;;26.87;14.50;;;3.80;99.90;;;;;;4984103;28;20472;-83
2022/12/05 03:11:07;;;;;;;25.50;14.83;;;3.90;99.90;;;;;;4997289;28;20450;-83
2022/12/05 03:13:41;;;;;;;24.20;15.90;;;3.90;99.90;;;;;;4997311;28;20454;-83
2022/12/05 03:16:13;;;;;;;25.83;14.67;;;3.90;99.90;;;;;;4997121;28;20493;-84
2022/12/05 03:18:44;;;;;;;22.13;14.57;;;4.00;99.90;;;;;;4996315;28;20486;-83
2022/12/05 03:21:22;;;;;;;30.17;16.83;;;4.10;99.90;;;;;;4997029;28;20457;-81
2022/12/05 03:23:52;;;;;;;25.57;13.70;;;4.00;99.90;;;;;;4988402;28;20465;-82
2022/12/05 03:26:36;;;;;;;26.07;16.37;;;4.10;99.90;;;;;;4976982;28;20466;-82
2022/12/05 03:29:19;;;;;;;26.77;15.90;;;4.10;99.90;;;;;;4985617;28;21018;-82
2022/12/05 03:31:55;;;;;;;36.70;17.30;;;4.00;99.90;;;;;;4996562;28;20452;-83
2022/12/05 03:34:32;;;;;;;24.00;15.23;;;3.80;99.90;;;;;;4977842;28;20837;-81
2022/12/05 03:37:02;;;;;;;27.87;15.63;;;4.00;99.90;;;;;;4990020;28;20511;-83
2022/12/05 03:39:33;;;;;;;31.73;17.10;;;4.00;99.90;;;;;;4999450;28;20544;-83
2022/12/05 03:42:08;;;;;;;28.87;15.77;;;4.10;99.90;;;;;;4980788;28;20461;-82
2022/12/05 03:44:44;;;;;;;24.93;18.10;;;4.10;99.90;;;;;;4997843;28;20549;-82
2022/12/05 03:47:18;;;;;;;29.63;16.87;;;4.00;99.90;;;;;;4997578;28;20456;-83
2022/12/05 03:49:48;;;;;;;25.63;16.60;;;3.90;99.90;;;;;;4993766;28;20474;-83
2022/12/05 03:52:20;;;;;;;28.20;15.13;;;3.90;99.90;;;;;;5000790;28;21044;-81
2022/12/05 03:54:50;;;;;;;25.40;16.37;;;4.00;99.90;;;;;;5001079;28;20448;-82
2022/12/05 03:57:21;;;;;;;23.07;15.13;;;3.90;99.90;;;;;;5001009;28;20425;-83
2022/12/05 03:59:54;;;;;;;26.10;15.57;;;3.90;99.90;;;;;;4998754;28;20490;-80
2022/12/05 04:02:28;;;;;;;28.30;16.70;;;3.90;99.90;;;;;;4999878;28;20454;-82
2022/12/05 04:04:58;;;;;;;23.40;14.53;;;3.90;99.90;;;;;;5000343;28;20443;-83
2022/12/05 04:07:29;;;;;;;34.73;16.90;;;3.90;99.90;;;;;;4994076;28;20459;-82
2022/12/05 04:09:59;;;;;;;26.00;14.30;;;3.90;99.90;;;;;;4994783;28;20480;-82
2022/12/05 04:12:30;;;;;;;27.73;15.33;;;3.90;99.90;;;;;;4999416;28;20920;-81
2022/12/05 04:14:59;;;;;;;28.53;16.10;;;4.00;99.90;;;;;;4999925;28;20482;-81
2022/12/05 04:17:33;;;;;;;31.03;17.40;;;3.90;99.90;;;;;;4999226;28;20450;-83
2022/12/05 04:22:50;;;;;;;26.10;16.47;;;3.90;99.90;;;;;;4960704;29;20383;-84
2022/12/05 04:25:32;;;;;;;27.23;14.20;;;3.90;99.90;;;;;;4960422;28;20443;-81
2022/12/05 04:28:08;;;;;;;22.70;14.40;;;4.00;99.90;;;;;;4998549;28;20520;-82
2022/12/05 04:30:39;;;;;;;27.13;15.77;;;4.00;99.90;;;;;;4977209;28;20470;-82
2022/12/05 04:33:13;;;;;;;28.30;14.33;;;4.00;99.90;;;;;;4998489;28;20450;-81
2022/12/05 04:35:45;;;;;;;22.50;13.83;;;4.00;99.90;;;;;;4990521;28;20455;-83
2022/12/05 04:38:16;;;;;;;22.37;14.30;;;3.90;99.90;;;;;;4979001;28;20528;-81
2022/12/05 04:40:49;;;;;;;24.60;14.70;;;3.90;99.90;;;;;;4990249;28;20487;-83
2022/12/05 04:43:18;;;;;;;24.23;13.33;;;3.90;99.90;;;;;;4979817;28;20482;-82
2022/12/05 04:45:46;;;;;;;24.70;13.90;;;3.90;99.90;;;;;;4979484;28;20460;-83
2022/12/05 04:48:17;;;;;;;26.70;14.20;;;3.90;99.90;;;;;;4978769;28;20542;-83
2022/12/05 04:50:46;;;;;;;23.60;15.07;;;3.90;99.90;;;;;;5024192;23;20503;-86
2022/12/05 04:53:15;;;;;;;25.37;14.00;;;3.90;99.90;;;;;;5041627;28;21020;-82
2022/12/05 04:55:46;;;;;;;26.40;14.30;;;4.00;99.90;;;;;;5040078;28;20421;-85
2022/12/05 04:58:16;;;;;;;27.00;15.33;;;4.00;99.90;;;;;;5045050;28;20451;-83
2022/12/05 05:00:49;;;;;;;22.87;14.27;;;3.90;99.90;;;;;;5050510;28;20572;-82
2022/12/05 05:03:23;;;;;;;24.53;14.33;;;3.80;99.90;;;;;;5065612;28;20432;-81
2022/12/05 05:05:54;;;;;;;27.27;16.63;;;3.90;99.90;;;;;;5065717;28;20444;-82
2022/12/05 05:08:27;;;;;;;29.10;15.20;;;3.90;99.90;;;;;;5060210;28;20456;-82
2022/12/05 05:11:10;;;;;;;23.03;12.90;;;3.80;99.90;;;;;;5036485;28;20551;-82
2022/12/05 05:13:36;;;;;;;30.53;15.90;;;3.80;99.90;;;;;;5036454;28;20457;-82
2022/12/05 05:16:04;;;;;;;25.47;14.60;;;3.70;99.90;;;;;;5044631;28;20452;-83
2022/12/05 05:18:32;;;;;;;24.70;15.43;;;3.60;99.90;;;;;;5055761;28;20471;-85
2022/12/05 05:20:59;;;;;;;27.77;15.90;;;3.70;99.90;;;;;;5056641;28;20839;-84
2022/12/05 05:23:26;;;;;;;28.73;15.57;;;3.50;99.90;;;;;;5056699;28;20440;-82
2022/12/05 05:25:54;;;;;;;26.53;14.00;;;3.60;99.90;;;;;;5055814;28;20963;-84
2022/12/05 05:28:21;;;;;;;30.30;17.47;;;3.60;99.90;;;;;;5056159;28;20821;-85
2022/12/05 05:30:50;;;;;;;23.40;14.23;;;3.60;99.90;;;;;;5054104;28;20442;-84
2022/12/05 05:33:17;;;;;;;27.10;16.33;;;3.60;99.90;;;;;;5056642;28;20501;-82
2022/12/05 05:35:45;;;;;;;27.90;17.70;;;3.60;99.90;;;;;;5055368;28;20451;-82
2022/12/05 05:38:12;;;;;;;25.83;15.63;;;3.50;99.90;;;;;;5052181;28;20463;-83
2022/12/05 05:40:38;;;;;;;25.57;17.23;;;3.50;99.90;;;;;;5036321;28;21032;-84
2022/12/05 05:43:05;;;;;;;24.27;13.67;;;3.60;99.90;;;;;;5036992;28;20482;-83
2022/12/05 05:45:32;;;;;;;29.93;16.37;;;3.60;99.90;;;;;;5047122;28;20452;-82
2022/12/05 05:47:59;;;;;;;27.70;17.17;;;3.60;99.90;;;;;;5054931;28;20451;-83
2022/12/05 05:50:26;;;;;;;26.00;15.57;;;3.50;99.90;;;;;;5036780;28;20873;-83
2022/12/05 05:52:54;;;;;;;26.27;15.83;;;3.60;99.90;;;;;;5036712;28;20451;-83
2022/12/05 05:55:21;;;;;;;26.80;16.83;;;3.70;99.90;;;;;;5054986;28;20449;-84
2022/12/05 05:57:48;;;;;;;38.03;16.97;;;3.60;99.90;;;;;;5054070;28;20452;-83
2022/12/05 06:00:15;;;;;;;20.47;13.20;;;3.70;99.90;;;;;;5044687;28;20562;-80
2022/12/05 06:02:42;;;;;;;29.97;16.53;;;3.70;99.90;;;;;;5045807;28;20492;-85
2022/12/05 06:05:09;;;;;;;28.90;15.10;;;3.60;99.90;;;;;;5034182;28;20463;-84
2022/12/05 06:07:36;;;;;;;35.63;17.43;;;3.60;99.90;;;;;;5033073;28;20449;-85
2022/12/05 06:10:06;;;;;;;25.77;15.40;;;3.60;99.90;;;;;;5034671;28;20472;-86
2022/12/05 06:12:32;;;;;;;27.30;14.53;;;3.60;99.90;;;;;;5032128;28;20534;-85
2022/12/05 06:14:59;;;;;;;26.43;15.43;;;3.50;99.90;;;;;;5027821;28;20454;-85
2022/12/05 06:17:26;;;;;;;36.70;19.47;;;3.50;99.90;;;;;;5030655;28;20536;-87
2022/12/05 06:19:53;;;;;;;35.97;18.00;;;3.50;99.90;;;;;;5033078;28;20482;-86
2022/12/05 06:22:20;;;;;;;29.60;17.60;;;3.50;99.90;;;;;;5033353;28;20536;-86
2022/12/05 06:24:47;;;;;;;25.90;14.70;;;3.40;99.90;;;;;;5033686;28;20486;-84
2022/12/05 06:27:15;;;;;;;25.87;15.80;;;3.40;99.90;;;;;;5037104;28;20488;-85
2022/12/05 06:29:42;;;;;;;33.23;18.17;;;3.50;99.90;;;;;;5033873;28;20521;-86
2022/12/05 06:32:09;;;;;;;29.60;17.90;;;3.50;99.90;;;;;;5036504;28;20468;-85
2022/12/05 06:34:36;;;;;;;23.37;15.60;;;3.50;99.90;;;;;;5032412;28;20449;-88
2022/12/05 06:37:03;;;;;;;25.10;16.10;;;3.50;99.90;;;;;;5034938;28;20464;-86
2022/12/05 06:39:30;;;;;;;31.90;17.20;;;3.50;99.90;;;;;;5031756;28;20543;-85
2022/12/05 06:41:57;;;;;;;34.90;18.17;;;3.50;99.90;;;;;;5035272;28;20475;-85
2022/12/05 06:44:27;;;;;;;24.87;17.43;;;3.50;99.90;;;;;;5033647;28;20885;-85
2022/12/05 06:46:55;;;;;;;30.53;16.23;;;3.50;99.90;;;;;;5029808;28;20863;-86
2022/12/05 06:49:24;;;;;;;29.30;17.30;;;3.40;99.90;;;;;;5033016;28;20459;-85
2022/12/05 06:51:51;;;;;;;34.83;17.63;;;3.40;99.90;;;;;;5026892;28;20480;-86
2022/12/05 06:54:18;;;;;;;28.57;16.53;;;3.30;99.90;;;;;;5033707;28;20453;-85
2022/12/05 06:56:45;;;;;;;36.10;17.23;;;3.20;99.90;;;;;;5034294;28;20892;-87
2022/12/05 06:59:12;;;;;;;32.37;17.80;;;3.20;99.90;;;;;;5027525;28;20463;-85
2022/12/05 07:01:42;;;;;;;27.73;17.40;;;3.30;99.90;;;;;;5032896;28;20463;-88
2022/12/05 07:04:12;;;;;;;27.40;16.90;;;3.30;99.90;;;;;;5037127;28;21016;-87
2022/12/05 07:06:42;;;;;;;33.03;17.20;;;3.30;99.90;;;;;;5033733;28;20485;-86
2022/12/05 07:09:09;;;;;;;30.00;15.47;;;3.30;99.90;;;;;;5036105;28;20462;-84
2022/12/05 07:11:37;;;;;;;29.23;17.00;;;3.20;99.90;;;;;;5037520;28;20474;-85
2022/12/05 07:14:05;;;;;;;24.30;15.17;;;3.20;99.90;;;;;;5039957;28;20457;-84
2022/12/05 07:16:32;;;;;;;27.07;15.57;;;3.20;99.90;;;;;;5038653;28;20449;-85
2022/12/05 07:19:01;;;;;;;23.80;15.50;;;3.00;99.90;;;;;;5039412;28;20456;-88
2022/12/05 07:21:27;;;;;;;26.10;16.10;;;3.00;99.90;;;;;;5033520;28;20490;-86
2022/12/05 07:23:54;;;;;;;26.30;14.20;;;3.00;99.90;;;;;;5035420;28;20510;-85
2022/12/05 07:26:23;;;;;;;24.57;14.07;;;2.80;99.90;;;;;;5036559;28;20841;-86
2022/12/05 07:28:51;;;;;;;29.43;16.10;;;2.80;99.90;;;;;;5045967;28;20452;-85
2022/12/05 07:31:20;;;;;;;22.77;14.43;;;2.70;99.90;;;;;;5037679;28;20468;-87
2022/12/05 07:33:48;;;;;;;21.40;13.80;;;2.80;99.90;;;;;;5034830;28;20460;-84
2022/12/05 07:36:18;;;;;;;19.73;12.90;;;2.80;99.90;;;;;;5042105;28;20461;-83
2022/12/05 07:38:45;;;;;;;16.23;11.20;;;2.70;99.90;;;;;;5050679;28;20547;-84
2022/12/05 07:41:17;;;;;;;20.87;11.10;;;2.70;99.90;;;;;;5055657;28;21004;-85
2022/12/05 07:43:44;;;;;;;19.57;11.60;;;2.80;99.90;;;;;;5055125;28;20454;-85
2022/12/05 07:46:11;;;;;;;17.00;12.50;;;3.00;99.90;;;;;;5055452;28;20473;-85
2022/12/05 07:48:38;;;;;;;18.27;11.40;;;3.00;99.90;;;;;;5041872;28;20847;-83
2022/12/05 07:51:06;;;;;;;22.47;13.90;;;2.90;99.90;;;;;;5043165;28;20507;-87
2022/12/05 07:53:34;;;;;;;20.43;10.97;;;3.00;99.90;;;;;;5038091;28;20945;-84
2022/12/05 07:56:03;;;;;;;16.70;12.33;;;2.90;99.90;;;;;;5038150;28;20920;-83
2022/12/05 07:58:30;;;;;;;18.00;10.57;;;2.90;99.90;;;;;;5038020;28;20535;-84
2022/12/05 08:00:57;;;;;;;15.33;11.20;;;3.10;99.90;;;;;;5054021;28;20888;-83
2022/12/05 08:03:24;;;;;;;13.97;11.27;;;3.00;99.90;;;;;;5057798;28;20455;-83
2022/12/05 08:05:51;;;;;;;17.63;11.20;;;3.00;99.90;;;;;;5057527;28;20542;-84
2022/12/05 08:08:18;;;;;;;16.47;10.57;;;3.00;99.90;;;;;;5050640;28;20531;-84
2022/12/05 08:10:46;;;;;;;20.27;12.10;;;3.10;99.90;;;;;;5035823;28;20511;-83
2022/12/05 08:13:13;;;;;;;21.10;12.40;;;3.00;99.90;;;;;;5041226;28;20452;-84
2022/12/05 08:15:40;;;;;;;20.67;12.57;;;3.00;99.90;;;;;;5071742;28;20487;-83
2022/12/05 08:18:06;;;;;;;18.23;11.90;;;3.00;99.90;;;;;;5068443;28;20555;-84
2022/12/05 08:20:33;;;;;;;15.83;10.57;;;3.00;99.90;;;;;;5046206;28;20504;-85
2022/12/05 08:23:00;;;;;;;21.13;12.30;;;3.10;99.90;;;;;;5035411;28;20454;-85
2022/12/05 08:25:27;;;;;;;15.90;10.97;;;3.20;99.90;;;;;;5034627;28;20537;-84
2022/12/05 08:27:55;;;;;;;17.47;10.33;;;3.30;99.90;;;;;;5041955;28;20725;-83
2022/12/05 08:30:22;;;;;;;17.90;10.87;;;3.30;99.90;;;;;;5035638;28;20471;-82
2022/12/05 08:32:49;;;;;;;11.57;8.00;;;3.30;99.90;;;;;;5037880;28;20508;-85
2022/12/05 08:35:15;;;;;;;27.42;19.00;;;6.40;99.90;;;;;;5035011;28;20934;-84
2022/12/05 08:37:42;;;;;;;29.70;16.67;;;6.40;99.90;;;;;;5037160;28;20209;-85
2022/12/05 08:40:10;;;;;;;24.57;15.30;;;6.20;99.90;;;;;;5035392;28;20965;-83
2022/12/05 08:42:37;;;;;;;20.10;15.13;;;5.50;99.90;;;;;;5036207;28;20450;-83
2022/12/05 08:45:06;;;;;;;21.97;15.70;;;5.10;99.90;;;;;;5039814;28;20464;-85
2022/12/05 08:47:33;;;;;;;17.57;12.10;;;4.80;99.90;;;;;;5034969;28;20462;-83
2022/12/05 08:49:59;;;;;;;19.57;13.03;;;4.40;99.90;;;;;;5035150;28;20449;-84
2022/12/05 08:52:26;;;;;;;18.83;12.53;;;4.30;99.90;;;;;;5034852;28;20541;-83
2022/12/05 08:54:53;;;;;;;17.63;12.83;;;4.20;99.90;;;;;;5041536;28;20993;-84
2022/12/05 08:57:20;;;;;;;19.47;12.07;;;3.70;99.90;;;;;;5037137;28;20448;-85
2022/12/05 08:59:47;;;;;;;16.07;11.87;;;3.60;99.90;;;;;;5035997;28;20461;-83
2022/12/05 09:02:15;;;;;;;19.27;12.33;;;3.40;99.90;;;;;;5034656;28;20867;-82
2022/12/05 09:04:42;;;;;;;20.00;12.63;;;3.50;99.90;;;;;;5035667;28;20468;-84
2022/12/05 09:07:08;;;;;;;18.93;12.57;;;3.50;99.90;;;;;;5038543;28;20455;-83
2022/12/05 09:09:35;;;;;;;15.33;11.27;;;3.50;99.90;;;;;;5051127;28;20522;-83
2022/12/05 09:12:02;;;;;;;18.53;11.57;;;3.50;99.90;;;;;;5039425;28;20462;-83
2022/12/05 09:14:31;;;;;;;15.33;10.73;;;3.40;99.90;;;;;;5035008;28;20539;-83
2022/12/05 09:16:58;;;;;;;13.77;10.23;;;3.50;99.90;;;;;;5041028;28;20452;-83
2022/12/05 09:19:27;;;;;;;20.67;11.50;;;3.50;99.90;;;;;;5052260;28;20523;-83
2022/12/05 09:21:55;;;;;;;15.57;9.90;;;3.40;99.90;;;;;;5036088;28;20484;-82
2022/12/05 09:24:22;;;;;;;22.53;12.97;;;3.50;99.90;;;;;;5035166;28;20547;-83
2022/12/05 09:26:49;;;;;;;16.57;11.40;;;3.50;99.90;;;;;;5037384;28;20898;-83
2022/12/05 09:29:15;;;;;;;21.63;13.33;;;3.60;99.90;;;;;;5035289;28;20889;-83
2022/12/05 09:31:43;;;;;;;17.17;10.97;;;3.60;99.90;;;;;;5034512;28;20479;-83
2022/12/05 09:34:12;;;;;;;20.07;13.23;;;3.60;99.90;;;;;;5042407;28;20536;-84
2022/12/05 09:36:40;;;;;;;18.73;13.23;;;3.40;99.90;;;;;;5036355;28;20512;-86
2022/12/05 09:39:11;;;;;;;19.90;12.40;;;3.20;99.90;;;;;;5034911;28;20457;-83
2022/12/05 09:42:09;;;;;;;19.07;11.37;;;3.30;99.90;;;;;;5034660;28;20981;-82
2022/12/05 09:44:47;;;;;;;16.00;10.97;;;3.40;99.90;;;;;;5041427;28;20841;-82
2022/12/05 09:47:23;;;;;;;18.97;12.47;;;3.60;99.90;;;;;;5044748;28;20887;-82
2022/12/05 09:49:54;;;;;;;15.60;10.50;;;3.80;99.90;;;;;;5042774;28;20471;-83
2022/12/05 09:52:28;;;;;;;14.97;10.90;;;3.80;99.90;;;;;;5054019;28;20480;-83
2022/12/05 09:54:57;;;;;;;15.77;10.97;;;4.00;99.90;;;;;;5047201;28;20544;-83
2022/12/05 09:57:30;;;;;;;16.30;10.70;;;4.00;99.90;;;;;;5040628;28;20547;-85
2022/12/05 09:59:58;;;;;;;15.10;10.77;;;4.00;99.90;;;;;;5035309;28;20815;-84
2022/12/05 10:02:39;;;;;;;14.83;10.30;;;3.90;99.90;;;;;;5035775;28;20503;-82
2022/12/05 10:05:09;;;;;;;15.27;10.97;;;3.90;99.90;;;;;;5036649;28;20467;-82
2022/12/05 10:07:48;;;;;;;13.93;10.43;;;3.90;99.90;;;;;;5035223;28;20508;-85
2022/12/05 10:10:32;;;;;;;16.63;11.00;;;4.00;99.90;;;;;;5034617;28;20452;-83
2022/12/05 10:13:24;;;;;;;14.43;9.50;;;3.90;99.90;;;;;;5034453;28;20460;-82
2022/12/05 10:15:55;;;;;;;17.57;11.50;;;3.90;99.90;;;;;;5034146;28;20473;-83
2022/12/05 10:18:30;;;;;;;16.00;11.10;;;3.90;99.90;;;;;;5035655;28;20488;-84
2022/12/05 10:21:02;;;;;;;17.20;10.83;;;3.80;99.90;;;;;;5036107;28;21011;-85
2022/12/05 10:23:38;;;;;;;19.50;12.87;;;3.70;99.90;;;;;;5036055;28;20476;-84
2022/12/05 10:26:10;;;;;;;20.93;12.97;;;3.70;99.90;;;;;;5027014;28;20535;-83
2022/12/05 10:28:42;;;;;;;18.17;10.80;;;3.70;99.90;;;;;;5037849;28;20445;-85
2022/12/05 10:31:13;;;;;;;16.53;10.83;;;3.80;99.90;;;;;;5055725;28;20487;-83
2022/12/05 10:33:45;;;;;;;21.30;13.20;;;4.00;99.90;;;;;;5039534;28;20552;-82
2022/12/05 10:36:13;;;;;;;18.50;12.30;;;4.00;99.90;;;;;;5037890;28;20892;-82
2022/12/05 10:38:44;;;;;;;16.33;11.50;;;4.00;99.90;;;;;;5038440;28;20555;-83
2022/12/05 10:41:13;;;;;;;15.30;10.80;;;3.80;99.90;;;;;;5046893;28;21241;-83
2022/12/05 10:43:42;;;;;;;16.17;10.30;;;4.00;99.90;;;;;;5036288;28;20545;-82
2022/12/05 10:46:10;;;;;;;19.43;12.50;;;4.20;99.90;;;;;;5038031;28;20521;-83
2022/12/05 10:48:39;;;;;;;17.80;10.70;;;4.20;99.90;;;;;;5067293;28;20475;-84
2022/12/05 10:51:07;;;;;;;19.77;11.63;;;4.10;99.90;;;;;;5056382;28;20471;-84
2022/12/05 10:53:42;;;;;;;18.03;12.30;;;4.00;99.90;;;;;;5047539;28;20478;-84
2022/12/05 10:56:39;;;;;;;24.53;12.57;;;4.00;99.90;;;;;;5044669;28;20476;-84
2022/12/05 10:59:08;;;;;;;21.83;12.20;;;3.80;99.90;;;;;;5024004;28;21018;-84
2022/12/05 11:01:36;;;;;;;19.17;12.17;;;3.60;99.90;;;;;;5030488;28;20498;-83
2022/12/05 11:04:10;;;;;;;18.13;12.47;;;3.80;99.90;;;;;;5032685;28;20570;-83
2022/12/05 11:06:37;;;;;;;18.33;12.83;;;3.80;99.90;;;;;;5029121;28;20448;-83
2022/12/05 11:09:14;;;;;;;17.70;11.20;;;3.90;99.90;;;;;;5030239;28;20508;-83
2022/12/05 11:11:41;;;;;;;15.57;10.70;;;3.80;99.90;;;;;;5028029;28;20506;-84
2022/12/05 11:14:22;;;;;;;15.20;10.83;;;3.90;99.90;;;;;;5032618;28;20535;-83
2022/12/05 11:16:53;;;;;;;21.73;12.30;;;3.90;99.90;;;;;;5032592;28;20468;-85
2022/12/05 11:19:26;;;;;;;15.90;10.80;;;3.80;99.90;;;;;;5037053;28;20457;-83
2022/12/05 11:21:53;;;;;;;17.17;11.50;;;3.80;99.90;;;;;;5028632;28;20508;-84
2022/12/05 11:24:25;;;;;;;19.03;13.03;;;3.90;99.90;;;;;;5037347;28;20520;-83
2022/12/05 11:26:52;;;;;;;18.27;12.63;;;3.90;99.90;;;;;;5032302;28;20453;-83
2022/12/05 11:29:34;;;;;;;17.00;11.20;;;3.80;99.90;;;;;;5033757;28;20521;-86
2022/12/05 11:32:02;;;;;;;17.67;12.70;;;3.80;99.90;;;;;;5033270;28;20526;-84
2022/12/05 11:34:35;;;;;;;20.10;13.67;;;3.70;99.90;;;;;;5040433;28;20452;-83
2022/12/05 11:37:10;;;;;;;21.20;12.33;;;3.70;99.90;;;;;;5041279;28;20445;-84
2022/12/05 11:39:39;;;;;;;23.43;13.43;;;3.80;99.90;;;;;;5040990;28;20450;-82
2022/12/05 11:42:20;;;;;;;22.87;15.30;;;3.80;99.90;;;;;;5037892;28;20540;-84
2022/12/05 11:45:12;;;;;;;17.90;11.90;;;3.90;99.90;;;;;;5040274;28;20552;-83
2022/12/05 11:48:03;;;;;;;20.83;13.73;;;3.90;99.90;;;;;;5027969;28;20547;-85
2022/12/05 11:50:41;;;;;;;18.20;13.23;;;3.90;99.90;;;;;;5032788;28;20487;-85
2022/12/05 11:53:38;;;;;;;18.57;11.87;;;3.90;99.90;;;;;;5032341;28;20449;-85
2022/12/05 11:56:19;;;;;;;20.33;11.70;;;3.90;99.90;;;;;;5043879;28;20456;-85
2022/12/05 11:59:01;;;;;;;20.40;11.53;;;3.80;99.90;;;;;;5036365;28;20808;-84
2022/12/05 12:01:40;;;;;;;22.73;14.73;;;3.80;99.90;;;;;;5035289;28;20493;-83
2022/12/05 12:04:34;;;;;;;23.57;14.13;;;3.60;99.90;;;;;;5026789;28;20527;-85
2022/12/05 12:07:18;;;;;;;20.03;11.90;;;3.60;99.90;;;;;;5025510;28;20822;-86
2022/12/05 12:09:53;;;;;;;22.60;13.43;;;3.60;99.90;;;;;;5032588;28;20449;-86
2022/12/05 12:12:29;;;;;;;21.53;13.10;;;3.40;99.90;;;;;;5031540;28;20462;-85
2022/12/05 12:15:06;;;;;;;21.90;13.50;;;3.40;99.90;;;;;;5057502;28;20476;-84
2022/12/05 12:17:42;;;;;;;7.30;5.67;;;3.50;99.90;;;;;;5038745;28;20499;-85
2022/12/05 12:20:33;;;;;;;31.30;19.60;;;5.10;99.90;;;;;;5038601;28;20830;-85
2022/12/05 12:23:13;;;;;;;28.90;19.50;;;6.70;99.90;;;;;;5030321;28;20494;-83
2022/12/05 12:25:50;;;;;;;27.50;19.27;;;6.00;99.90;;;;;;5025908;28;20972;-84
2022/12/05 12:28:29;;;;;;;29.30;20.13;;;5.50;99.90;;;;;;5030311;28;20455;-84
2022/12/05 12:31:34;;;;;;;25.80;18.13;;;5.20;99.90;;;;;;5033739;28;21026;-84
2022/12/05 12:34:14;;;;;;;23.90;15.47;;;4.90;99.90;;;;;;5035750;28;20467;-83
2022/12/05 12:36:47;;;;;;;20.33;15.03;;;4.50;99.90;;;;;;5035573;28;20453;-83
2022/12/05 12:39:26;;;;;;;18.70;13.70;;;4.30;99.90;;;;;;5034126;28;21023;-83
2022/12/05 12:42:13;;;;;;;19.50;12.73;;;4.00;99.90;;;;;;5036246;28;20500;-85
2022/12/05 12:45:04;;;;;;;18.27;13.17;;;3.80;99.90;;;;;;5050222;28;20506;-85
2022/12/05 12:47:46;;;;;;;22.70;14.20;;;3.70;99.90;;;;;;5048289;28;20495;-86
2022/12/05 12:50:18;;;;;;;13.87;10.30;;;3.50;99.90;;;;;;5048603;28;20460;-84
2022/12/05 12:53:15;;;;;;;14.33;10.27;;;3.50;99.90;;;;;;5043281;28;20940;-84
2022/12/05 12:55:49;;;;;;;15.23;9.70;;;3.60;99.90;;;;;;5042641;28;20969;-85
2022/12/05 12:58:26;;;;;;;20.80;14.47;;;3.60;99.90;;;;;;5063419;28;20457;-84
2022/12/05 13:01:04;;;;;;;17.57;13.03;;;3.40;99.90;;;;;;5045494;28;20531;-84